sensor_id;sensor_type;location;lat;lon;timestamp;temperature;humidity
59007;DHT22;44792;52.760;6.726;2023-12-29T00:00:29;10.10;99.90
59007;DHT22;44792;52.760;6.726;2023-12-29T00:02:55;10.10;99.90
59007;DHT22;44792;52.760;6.726;2023-12-29T00:05:20;10.10;99.90
59007;DHT22;44792;52.760;6.726;2023-12-29T00:07:46;10.10;99.90
59007;DHT22;44792;52.760;6.726;2023-12-29T00:10:12;10.10;99.90
59007;DHT22;44792;52.760;6.726;2023-12-29T00:12:37;10.10;99.90
59007;DHT22;44792;52.760;6.726;2023-12-29T00:15:04;10.10;99.90
59007;DHT22;44792;52.760;6.726;2023-12-29T00:17:29;10.10;99.90
59007;DHT22;44792;52.760;6.726;2023-12-29T00:19:55;10.10;99.90
59007;DHT22;44792;52.760;6.726;2023-12-29T00:22:21;10.00;99.90
59007;DHT22;44792;52.760;6.726;2023-12-29T00:24:47;10.10;99.90
59007;DHT22;44792;52.760;6.726;2023-12-29T00:27:13;10.10;99.90
59007;DHT22;44792;52.760;6.726;2023-12-29T00:29:39;10.10;99.90
59007;DHT22;44792;52.760;6.726;2023-12-29T00:32:05;10.10;99.90
59007;DHT22;44792;52.760;6.726;2023-12-29T00:34:31;10.00;99.90
59007;DHT22;44792;52.760;6.726;2023-12-29T00:36:57;10.00;99.90
59007;DHT22;44792;52.760;6.726;2023-12-29T00:39:23;10.00;99.90
59007;DHT22;44792;52.760;6.726;2023-12-29T00:41:56;9.90;99.90
59007;DHT22;44792;52.760;6.726;2023-12-29T00:44:23;9.90;99.90
59007;DHT22;44792;52.760;6.726;2023-12-29T00:46:49;9.90;99.90
59007;DHT22;44792;52.760;6.726;2023-12-29T00:49:15;9.90;99.90
59007;DHT22;44792;52.760;6.726;2023-12-29T00:51:41;9.90;99.90
59007;DHT22;44792;52.760;6.726;2023-12-29T00:54:07;9.90;99.90
59007;DHT22;44792;52.760;6.726;2023-12-29T00:56:33;9.90;99.90
59007;DHT22;44792;52.760;6.726;2023-12-29T00:58:58;9.90;99.90
59007;DHT22;44792;52.760;6.726;2023-12-29T01:01:24;9.90;99.90
59007;DHT22;44792;52.760;6.726;2023-12-29T01:03:50;9.90;99.90
59007;DHT22;44792;52.760;6.726;2023-12-29T01:06:20;9.90;99.90
59007;DHT22;44792;52.760;6.726;2023-12-29T01:08:45;9.90;99.90
59007;DHT22;44792;52.760;6.726;2023-12-29T01:11:11;9.90;99.90
59007;DHT22;44792;52.760;6.726;2023-12-29T01:13:37;9.80;99.90
59007;DHT22;44792;52.760;6.726;2023-12-29T01:16:02;9.80;99.90
59007;DHT22;44792;52.760;6.726;2023-12-29T01:18:28;9.80;99.90
59007;DHT22;44792;52.760;6.726;2023-12-29T01:20:54;9.80;99.90
59007;DHT22;44792;52.760;6.726;2023-12-29T01:23:20;9.80;99.90
59007;DHT22;44792;52.760;6.726;2023-12-29T01:25:45;9.80;99.90
59007;DHT22;44792;52.760;6.726;2023-12-29T01:28:11;9.80;99.90
59007;DHT22;44792;52.760;6.726;2023-12-29T01:30:40;9.70;99.90
59007;DHT22;44792;52.760;6.726;2023-12-29T01:33:05;9.70;99.90
59007;DHT22;44792;52.760;6.726;2023-12-29T01:35:31;9.70;99.90
59007;DHT22;44792;52.760;6.726;2023-12-29T01:37:57;9.80;99.90
59007;DHT22;44792;52.760;6.726;2023-12-29T01:40:22;9.80;99.90
59007;DHT22;44792;52.760;6.726;2023-12-29T01:42:48;9.80;99.90
59007;DHT22;44792;52.760;6.726;2023-12-29T01:45:24;9.80;99.90
59007;DHT22;44792;52.760;6.726;2023-12-29T01:47:51;9.90;99.90
59007;DHT22;44792;52.760;6.726;2023-12-29T01:50:22;9.80;99.90
59007;DHT22;44792;52.760;6.726;2023-12-29T01:52:50;9.80;99.90
59007;DHT22;44792;52.760;6.726;2023-12-29T01:55:18;9.90;99.90
59007;DHT22;44792;52.760;6.726;2023-12-29T01:57:45;9.90;99.90
59007;DHT22;44792;52.760;6.726;2023-12-29T02:00:16;9.90;99.90
59007;DHT22;44792;52.760;6.726;2023-12-29T02:02:42;9.90;99.90
59007;DHT22;44792;52.760;6.726;2023-12-29T02:05:09;9.90;99.90
59007;DHT22;44792;52.760;6.726;2023-12-29T02:07:38;9.90;99.90
59007;DHT22;44792;52.760;6.726;2023-12-29T02:10:06;9.90;99.90
59007;DHT22;44792;52.760;6.726;2023-12-29T02:12:36;9.80;99.90
59007;DHT22;44792;52.760;6.726;2023-12-29T02:15:04;9.80;99.90
59007;DHT22;44792;52.760;6.726;2023-12-29T02:17:36;9.90;99.90
59007;DHT22;44792;52.760;6.726;2023-12-29T02:20:05;9.80;99.90
59007;DHT22;44792;52.760;6.726;2023-12-29T02:22:30;9.80;99.90
59007;DHT22;44792;52.760;6.726;2023-12-29T02:24:56;9.80;99.90
59007;DHT22;44792;52.760;6.726;2023-12-29T02:27:38;9.90;99.90
59007;DHT22;44792;52.760;6.726;2023-12-29T02:33:14;9.90;99.90
59007;DHT22;44792;52.760;6.726;2023-12-29T02:35:43;9.90;99.90
59007;DHT22;44792;52.760;6.726;2023-12-29T02:38:10;9.90;99.90
59007;DHT22;44792;52.760;6.726;2023-12-29T02:40:38;10.00;99.90
59007;DHT22;44792;52.760;6.726;2023-12-29T02:43:04;10.00;99.90
59007;DHT22;44792;52.760;6.726;2023-12-29T02:45:30;10.10;99.90
59007;DHT22;44792;52.760;6.726;2023-12-29T02:47:55;10.00;99.90
59007;DHT22;44792;52.760;6.726;2023-12-29T02:50:22;10.10;99.90
59007;DHT22;44792;52.760;6.726;2023-12-29T02:52:48;10.10;99.90
59007;DHT22;44792;52.760;6.726;2023-12-29T02:55:13;10.10;99.90
59007;DHT22;44792;52.760;6.726;2023-12-29T02:57:39;10.10;99.90
59007;DHT22;44792;52.760;6.726;2023-12-29T03:00:05;10.10;99.90
59007;DHT22;44792;52.760;6.726;2023-12-29T03:02:33;10.10;99.90
59007;DHT22;44792;52.760;6.726;2023-12-29T03:04:59;10.20;99.90
59007;DHT22;44792;52.760;6.726;2023-12-29T03:07:24;10.20;99.90
59007;DHT22;44792;52.760;6.726;2023-12-29T03:09:50;10.20;99.90
59007;DHT22;44792;52.760;6.726;2023-12-29T03:12:16;10.20;99.90
59007;DHT22;44792;52.760;6.726;2023-12-29T03:14:42;10.20;99.90
59007;DHT22;44792;52.760;6.726;2023-12-29T03:17:07;10.30;99.90
59007;DHT22;44792;52.760;6.726;2023-12-29T03:19:33;10.30;99.90
59007;DHT22;44792;52.760;6.726;2023-12-29T03:21:59;10.30;99.90
59007;DHT22;44792;52.760;6.726;2023-12-29T03:24:24;10.30;99.90
59007;DHT22;44792;52.760;6.726;2023-12-29T03:26:50;10.30;99.90
59007;DHT22;44792;52.760;6.726;2023-12-29T03:29:16;10.20;99.90
59007;DHT22;44792;52.760;6.726;2023-12-29T03:31:41;10.20;99.90
59007;DHT22;44792;52.760;6.726;2023-12-29T03:34:07;10.20;99.90
59007;DHT22;44792;52.760;6.726;2023-12-29T03:36:34;10.10;99.90
59007;DHT22;44792;52.760;6.726;2023-12-29T03:39:00;10.10;99.90
59007;DHT22;44792;52.760;6.726;2023-12-29T03:41:26;10.10;99.90
59007;DHT22;44792;52.760;6.726;2023-12-29T03:43:54;10.10;99.90
59007;DHT22;44792;52.760;6.726;2023-12-29T03:46:22;10.10;99.90
59007;DHT22;44792;52.760;6.726;2023-12-29T03:48:48;10.10;99.90
59007;DHT22;44792;52.760;6.726;2023-12-29T03:51:15;10.10;99.90
59007;DHT22;44792;52.760;6.726;2023-12-29T03:53:41;10.00;99.90
59007;DHT22;44792;52.760;6.726;2023-12-29T03:56:14;10.00;99.90
59007;DHT22;44792;52.760;6.726;2023-12-29T03:58:40;10.00;99.90
59007;DHT22;44792;52.760;6.726;2023-12-29T04:01:19;10.00;99.90
59007;DHT22;44792;52.760;6.726;2023-12-29T04:03:45;10.10;99.90
59007;DHT22;44792;52.760;6.726;2023-12-29T04:06:11;10.00;99.90
59007;DHT22;44792;52.760;6.726;2023-12-29T04:08:37;10.00;99.90
59007;DHT22;44792;52.760;6.726;2023-12-29T04:11:04;10.10;99.90
59007;DHT22;44792;52.760;6.726;2023-12-29T04:13:33;10.10;99.90
59007;DHT22;44792;52.760;6.726;2023-12-29T04:15:59;10.10;99.90
59007;DHT22;44792;52.760;6.726;2023-12-29T04:18:25;10.10;99.90
59007;DHT22;44792;52.760;6.726;2023-12-29T04:20:51;10.10;99.90
59007;DHT22;44792;52.760;6.726;2023-12-29T04:23:17;10.10;99.90
59007;DHT22;44792;52.760;6.726;2023-12-29T04:25:42;10.10;99.90
59007;DHT22;44792;52.760;6.726;2023-12-29T04:28:08;10.00;99.90
59007;DHT22;44792;52.760;6.726;2023-12-29T04:30:34;10.00;99.90
59007;DHT22;44792;52.760;6.726;2023-12-29T04:33:00;9.90;99.90
59007;DHT22;44792;52.760;6.726;2023-12-29T04:35:26;9.90;99.90
59007;DHT22;44792;52.760;6.726;2023-12-29T04:37:52;9.90;99.90
59007;DHT22;44792;52.760;6.726;2023-12-29T04:40:17;9.90;99.90
59007;DHT22;44792;52.760;6.726;2023-12-29T04:42:43;9.90;99.90
59007;DHT22;44792;52.760;6.726;2023-12-29T04:45:09;9.90;99.90
59007;DHT22;44792;52.760;6.726;2023-12-29T04:47:36;9.90;99.90
59007;DHT22;44792;52.760;6.726;2023-12-29T04:50:04;9.90;99.90
59007;DHT22;44792;52.760;6.726;2023-12-29T04:52:33;9.90;99.90
59007;DHT22;44792;52.760;6.726;2023-12-29T04:54:59;9.90;99.90
59007;DHT22;44792;52.760;6.726;2023-12-29T04:57:25;9.90;99.90
59007;DHT22;44792;52.760;6.726;2023-12-29T04:59:51;9.90;99.90
59007;DHT22;44792;52.760;6.726;2023-12-29T05:02:16;9.90;99.90
59007;DHT22;44792;52.760;6.726;2023-12-29T05:04:45;9.90;99.90
59007;DHT22;44792;52.760;6.726;2023-12-29T05:07:12;9.90;99.90
59007;DHT22;44792;52.760;6.726;2023-12-29T05:09:37;9.90;99.90
59007;DHT22;44792;52.760;6.726;2023-12-29T05:12:03;9.90;99.90
59007;DHT22;44792;52.760;6.726;2023-12-29T05:14:29;10.00;99.90
59007;DHT22;44792;52.760;6.726;2023-12-29T05:16:55;9.90;99.90
59007;DHT22;44792;52.760;6.726;2023-12-29T05:19:20;9.90;99.90
59007;DHT22;44792;52.760;6.726;2023-12-29T05:21:47;9.90;99.90
59007;DHT22;44792;52.760;6.726;2023-12-29T05:24:16;9.90;99.90
59007;DHT22;44792;52.760;6.726;2023-12-29T05:26:42;9.90;99.90
59007;DHT22;44792;52.760;6.726;2023-12-29T05:29:09;10.00;99.90
59007;DHT22;44792;52.760;6.726;2023-12-29T05:31:35;9.90;99.90
59007;DHT22;44792;52.760;6.726;2023-12-29T05:34:01;10.00;99.90
59007;DHT22;44792;52.760;6.726;2023-12-29T05:36:26;9.90;99.90
59007;DHT22;44792;52.760;6.726;2023-12-29T05:38:52;9.90;99.90
59007;DHT22;44792;52.760;6.726;2023-12-29T05:41:19;9.90;99.90
59007;DHT22;44792;52.760;6.726;2023-12-29T05:43:44;9.90;99.90
59007;DHT22;44792;52.760;6.726;2023-12-29T05:46:11;9.90;99.90
59007;DHT22;44792;52.760;6.726;2023-12-29T05:48:40;9.90;99.90
59007;DHT22;44792;52.760;6.726;2023-12-29T05:51:10;9.90;99.90
59007;DHT22;44792;52.760;6.726;2023-12-29T05:53:39;9.90;99.90
59007;DHT22;44792;52.760;6.726;2023-12-29T05:56:05;9.90;99.90
59007;DHT22;44792;52.760;6.726;2023-12-29T05:58:31;9.90;99.90
59007;DHT22;44792;52.760;6.726;2023-12-29T06:00:57;9.90;99.90
59007;DHT22;44792;52.760;6.726;2023-12-29T06:03:24;9.90;99.90
59007;DHT22;44792;52.760;6.726;2023-12-29T06:05:50;9.90;99.90
59007;DHT22;44792;52.760;6.726;2023-12-29T06:08:16;9.90;99.90
59007;DHT22;44792;52.760;6.726;2023-12-29T06:10:42;9.90;99.90
59007;DHT22;44792;52.760;6.726;2023-12-29T06:13:07;9.90;99.90
59007;DHT22;44792;52.760;6.726;2023-12-29T06:15:33;9.90;99.90
59007;DHT22;44792;52.760;6.726;2023-12-29T06:17:59;9.90;99.90
59007;DHT22;44792;52.760;6.726;2023-12-29T06:20:25;9.90;99.90
59007;DHT22;44792;52.760;6.726;2023-12-29T06:22:51;9.90;99.90
59007;DHT22;44792;52.760;6.726;2023-12-29T06:25:17;9.90;99.90
59007;DHT22;44792;52.760;6.726;2023-12-29T06:27:42;10.00;99.90
59007;DHT22;44792;52.760;6.726;2023-12-29T06:30:09;9.90;99.90
59007;DHT22;44792;52.760;6.726;2023-12-29T06:32:36;9.90;99.90
59007;DHT22;44792;52.760;6.726;2023-12-29T06:35:02;9.90;99.90
59007;DHT22;44792;52.760;6.726;2023-12-29T06:37:28;9.90;99.90
59007;DHT22;44792;52.760;6.726;2023-12-29T06:39:54;9.90;99.90
59007;DHT22;44792;52.760;6.726;2023-12-29T06:42:20;9.80;99.90
59007;DHT22;44792;52.760;6.726;2023-12-29T06:44:46;9.80;99.90
59007;DHT22;44792;52.760;6.726;2023-12-29T06:47:12;9.80;99.90
59007;DHT22;44792;52.760;6.726;2023-12-29T06:49:38;9.80;99.90
59007;DHT22;44792;52.760;6.726;2023-12-29T06:52:04;9.80;99.90
59007;DHT22;44792;52.760;6.726;2023-12-29T06:54:30;9.80;99.90
59007;DHT22;44792;52.760;6.726;2023-12-29T06:56:56;9.80;99.90
59007;DHT22;44792;52.760;6.726;2023-12-29T06:59:22;9.80;99.90
59007;DHT22;44792;52.760;6.726;2023-12-29T07:01:48;9.80;99.90
59007;DHT22;44792;52.760;6.726;2023-12-29T07:04:14;9.80;99.90
59007;DHT22;44792;52.760;6.726;2023-12-29T07:06:41;9.80;99.90
59007;DHT22;44792;52.760;6.726;2023-12-29T07:09:07;9.70;99.90
59007;DHT22;44792;52.760;6.726;2023-12-29T07:11:34;9.70;99.90
59007;DHT22;44792;52.760;6.726;2023-12-29T07:14:00;9.70;99.90
59007;DHT22;44792;52.760;6.726;2023-12-29T07:16:26;9.60;99.90
59007;DHT22;44792;52.760;6.726;2023-12-29T07:18:52;9.60;99.90
59007;DHT22;44792;52.760;6.726;2023-12-29T07:21:18;9.70;99.90
59007;DHT22;44792;52.760;6.726;2023-12-29T07:23:44;9.70;99.90
59007;DHT22;44792;52.760;6.726;2023-12-29T07:26:09;9.60;99.90
59007;DHT22;44792;52.760;6.726;2023-12-29T07:28:35;9.60;99.90
59007;DHT22;44792;52.760;6.726;2023-12-29T07:31:01;9.60;99.90
59007;DHT22;44792;52.760;6.726;2023-12-29T07:33:27;9.70;99.90
59007;DHT22;44792;52.760;6.726;2023-12-29T07:35:53;9.60;99.90
59007;DHT22;44792;52.760;6.726;2023-12-29T07:38:20;9.70;99.90
59007;DHT22;44792;52.760;6.726;2023-12-29T07:40:46;9.60;99.90
59007;DHT22;44792;52.760;6.726;2023-12-29T07:43:13;9.60;99.90
59007;DHT22;44792;52.760;6.726;2023-12-29T07:45:39;9.60;99.90
59007;DHT22;44792;52.760;6.726;2023-12-29T07:48:05;9.60;99.90
59007;DHT22;44792;52.760;6.726;2023-12-29T07:50:31;9.70;99.90
59007;DHT22;44792;52.760;6.726;2023-12-29T07:52:57;9.70;99.90
59007;DHT22;44792;52.760;6.726;2023-12-29T07:55:23;9.70;99.90
59007;DHT22;44792;52.760;6.726;2023-12-29T07:57:48;9.70;99.90
59007;DHT22;44792;52.760;6.726;2023-12-29T08:00:15;9.60;99.90
59007;DHT22;44792;52.760;6.726;2023-12-29T08:02:41;9.70;99.90
59007;DHT22;44792;52.760;6.726;2023-12-29T08:05:07;9.60;99.90
59007;DHT22;44792;52.760;6.726;2023-12-29T08:07:36;9.70;99.90
59007;DHT22;44792;52.760;6.726;2023-12-29T08:10:04;9.70;99.90
59007;DHT22;44792;52.760;6.726;2023-12-29T08:12:30;9.70;99.90
59007;DHT22;44792;52.760;6.726;2023-12-29T08:14:56;9.70;99.90
59007;DHT22;44792;52.760;6.726;2023-12-29T08:17:22;9.70;99.90
59007;DHT22;44792;52.760;6.726;2023-12-29T08:19:48;9.70;99.90
59007;DHT22;44792;52.760;6.726;2023-12-29T08:22:13;9.70;99.90
59007;DHT22;44792;52.760;6.726;2023-12-29T08:24:42;9.70;99.90
59007;DHT22;44792;52.760;6.726;2023-12-29T08:27:18;9.70;99.90
59007;DHT22;44792;52.760;6.726;2023-12-29T08:29:47;9.70;99.90
59007;DHT22;44792;52.760;6.726;2023-12-29T08:32:13;9.70;99.90
59007;DHT22;44792;52.760;6.726;2023-12-29T08:34:40;9.70;99.90
59007;DHT22;44792;52.760;6.726;2023-12-29T08:37:08;9.70;99.90
59007;DHT22;44792;52.760;6.726;2023-12-29T08:39:34;9.80;99.90
59007;DHT22;44792;52.760;6.726;2023-12-29T08:42:00;9.80;99.90
59007;DHT22;44792;52.760;6.726;2023-12-29T08:44:26;9.80;99.90
59007;DHT22;44792;52.760;6.726;2023-12-29T08:46:51;9.80;99.90
59007;DHT22;44792;52.760;6.726;2023-12-29T08:49:17;9.70;99.90
59007;DHT22;44792;52.760;6.726;2023-12-29T08:51:44;9.80;99.90
59007;DHT22;44792;52.760;6.726;2023-12-29T08:54:10;9.80;99.90
59007;DHT22;44792;52.760;6.726;2023-12-29T08:56:35;9.80;99.90
59007;DHT22;44792;52.760;6.726;2023-12-29T08:59:01;9.80;99.90
59007;DHT22;44792;52.760;6.726;2023-12-29T09:01:27;9.80;99.90
59007;DHT22;44792;52.760;6.726;2023-12-29T09:03:59;9.80;99.90
59007;DHT22;44792;52.760;6.726;2023-12-29T09:06:28;9.80;99.90
59007;DHT22;44792;52.760;6.726;2023-12-29T09:08:54;9.80;99.90
59007;DHT22;44792;52.760;6.726;2023-12-29T09:11:19;9.90;99.90
59007;DHT22;44792;52.760;6.726;2023-12-29T09:13:45;9.90;99.90
59007;DHT22;44792;52.760;6.726;2023-12-29T09:16:14;9.90;99.90
59007;DHT22;44792;52.760;6.726;2023-12-29T09:18:40;9.90;99.90
59007;DHT22;44792;52.760;6.726;2023-12-29T09:21:06;9.90;99.90
59007;DHT22;44792;52.760;6.726;2023-12-29T09:23:31;9.90;99.90
59007;DHT22;44792;52.760;6.726;2023-12-29T09:25:57;9.90;99.90
59007;DHT22;44792;52.760;6.726;2023-12-29T09:28:23;10.00;99.90
59007;DHT22;44792;52.760;6.726;2023-12-29T09:30:49;10.00;99.90
59007;DHT22;44792;52.760;6.726;2023-12-29T09:33:15;10.00;99.90
59007;DHT22;44792;52.760;6.726;2023-12-29T09:35:41;10.00;99.90
59007;DHT22;44792;52.760;6.726;2023-12-29T09:38:07;10.00;99.90
59007;DHT22;44792;52.760;6.726;2023-12-29T09:40:35;10.00;99.90
59007;DHT22;44792;52.760;6.726;2023-12-29T09:43:03;10.00;99.90
59007;DHT22;44792;52.760;6.726;2023-12-29T09:45:33;10.00;99.90
59007;DHT22;44792;52.760;6.726;2023-12-29T09:48:06;10.10;99.90
59007;DHT22;44792;52.760;6.726;2023-12-29T09:50:32;10.00;99.90
59007;DHT22;44792;52.760;6.726;2023-12-29T09:53:02;10.00;99.90
59007;DHT22;44792;52.760;6.726;2023-12-29T09:55:28;10.00;99.90
59007;DHT22;44792;52.760;6.726;2023-12-29T09:57:55;10.00;99.90
59007;DHT22;44792;52.760;6.726;2023-12-29T10:00:20;10.10;99.90
59007;DHT22;44792;52.760;6.726;2023-12-29T10:02:51;10.00;99.90
59007;DHT22;44792;52.760;6.726;2023-12-29T10:05:17;10.00;99.90
59007;DHT22;44792;52.760;6.726;2023-12-29T10:07:45;10.00;99.90
59007;DHT22;44792;52.760;6.726;2023-12-29T10:10:15;10.00;99.90
59007;DHT22;44792;52.760;6.726;2023-12-29T10:12:43;10.00;99.90
59007;DHT22;44792;52.760;6.726;2023-12-29T10:15:17;10.00;99.90
59007;DHT22;44792;52.760;6.726;2023-12-29T10:21:29;9.90;99.90
59007;DHT22;44792;52.760;6.726;2023-12-29T10:23:54;9.90;99.90
59007;DHT22;44792;52.760;6.726;2023-12-29T10:26:23;9.70;99.90
59007;DHT22;44792;52.760;6.726;2023-12-29T10:28:49;9.70;99.90
59007;DHT22;44792;52.760;6.726;2023-12-29T10:31:18;9.70;99.90
59007;DHT22;44792;52.760;6.726;2023-12-29T10:33:44;9.60;99.90
59007;DHT22;44792;52.760;6.726;2023-12-29T10:36:18;9.40;99.90
59007;DHT22;44792;52.760;6.726;2023-12-29T10:38:44;9.30;99.90
59007;DHT22;44792;52.760;6.726;2023-12-29T10:41:11;9.10;99.90
59007;DHT22;44792;52.760;6.726;2023-12-29T10:43:38;9.20;99.90
59007;DHT22;44792;52.760;6.726;2023-12-29T10:46:08;9.10;99.90
59007;DHT22;44792;52.760;6.726;2023-12-29T10:48:34;9.00;99.90
59007;DHT22;44792;52.760;6.726;2023-12-29T10:51:01;9.00;99.90
59007;DHT22;44792;52.760;6.726;2023-12-29T10:53:36;9.00;99.90
59007;DHT22;44792;52.760;6.726;2023-12-29T10:56:02;9.00;99.90
59007;DHT22;44792;52.760;6.726;2023-12-29T10:58:29;9.10;99.90
59007;DHT22;44792;52.760;6.726;2023-12-29T11:00:55;9.10;99.90
59007;DHT22;44792;52.760;6.726;2023-12-29T11:03:21;9.10;99.90
59007;DHT22;44792;52.760;6.726;2023-12-29T11:05:48;9.10;99.90
59007;DHT22;44792;52.760;6.726;2023-12-29T11:08:18;9.20;99.90
59007;DHT22;44792;52.760;6.726;2023-12-29T11:10:44;9.20;99.90
59007;DHT22;44792;52.760;6.726;2023-12-29T11:13:11;9.30;99.90
59007;DHT22;44792;52.760;6.726;2023-12-29T11:15:42;9.30;99.90
59007;DHT22;44792;52.760;6.726;2023-12-29T11:18:20;9.30;99.90
59007;DHT22;44792;52.760;6.726;2023-12-29T11:20:47;9.30;99.90
59007;DHT22;44792;52.760;6.726;2023-12-29T11:23:12;9.40;99.90
59007;DHT22;44792;52.760;6.726;2023-12-29T11:25:44;9.40;99.90
59007;DHT22;44792;52.760;6.726;2023-12-29T11:28:11;9.40;99.90
59007;DHT22;44792;52.760;6.726;2023-12-29T11:30:37;9.60;99.90
59007;DHT22;44792;52.760;6.726;2023-12-29T11:36:03;9.60;99.90
59007;DHT22;44792;52.760;6.726;2023-12-29T11:38:57;9.60;99.90
59007;DHT22;44792;52.760;6.726;2023-12-29T11:41:37;9.60;99.90
59007;DHT22;44792;52.760;6.726;2023-12-29T11:44:04;9.60;99.90
59007;DHT22;44792;52.760;6.726;2023-12-29T11:48:58;9.70;99.90
59007;DHT22;44792;52.760;6.726;2023-12-29T11:54:01;9.70;99.90
59007;DHT22;44792;52.760;6.726;2023-12-29T11:56:40;9.70;99.90
59007;DHT22;44792;52.760;6.726;2023-12-29T11:59:23;9.80;99.90
59007;DHT22;44792;52.760;6.726;2023-12-29T12:01:59;9.80;99.90
59007;DHT22;44792;52.760;6.726;2023-12-29T12:07:04;9.80;99.90
59007;DHT22;44792;52.760;6.726;2023-12-29T12:09:30;9.90;99.90
59007;DHT22;44792;52.760;6.726;2023-12-29T12:11:55;9.90;99.90
59007;DHT22;44792;52.760;6.726;2023-12-29T12:14:44;10.10;99.90
59007;DHT22;44792;52.760;6.726;2023-12-29T12:17:10;10.10;99.90
59007;DHT22;44792;52.760;6.726;2023-12-29T12:19:36;10.20;99.90
59007;DHT22;44792;52.760;6.726;2023-12-29T12:22:03;10.20;99.90
59007;DHT22;44792;52.760;6.726;2023-12-29T12:24:29;10.20;99.90
59007;DHT22;44792;52.760;6.726;2023-12-29T12:26:55;10.30;99.90
59007;DHT22;44792;52.760;6.726;2023-12-29T12:29:21;10.30;99.90
59007;DHT22;44792;52.760;6.726;2023-12-29T12:31:57;10.30;99.90
59007;DHT22;44792;52.760;6.726;2023-12-29T12:34:23;10.40;99.90
59007;DHT22;44792;52.760;6.726;2023-12-29T12:36:53;10.40;99.90
59007;DHT22;44792;52.760;6.726;2023-12-29T12:39:20;10.40;99.90
59007;DHT22;44792;52.760;6.726;2023-12-29T12:41:46;10.30;99.90
59007;DHT22;44792;52.760;6.726;2023-12-29T12:44:13;10.40;99.90
59007;DHT22;44792;52.760;6.726;2023-12-29T12:46:51;10.40;99.90
59007;DHT22;44792;52.760;6.726;2023-12-29T12:49:22;10.40;99.90
59007;DHT22;44792;52.760;6.726;2023-12-29T12:51:48;10.40;99.90
59007;DHT22;44792;52.760;6.726;2023-12-29T12:54:18;10.40;99.90
59007;DHT22;44792;52.760;6.726;2023-12-29T12:56:47;10.40;99.90
59007;DHT22;44792;52.760;6.726;2023-12-29T12:59:13;10.50;99.90
59007;DHT22;44792;52.760;6.726;2023-12-29T13:01:40;10.50;99.90
59007;DHT22;44792;52.760;6.726;2023-12-29T13:04:07;10.40;99.90
59007;DHT22;44792;52.760;6.726;2023-12-29T13:06:34;10.30;99.90
59007;DHT22;44792;52.760;6.726;2023-12-29T13:09:01;10.30;99.90
59007;DHT22;44792;52.760;6.726;2023-12-29T13:11:34;10.30;99.90
59007;DHT22;44792;52.760;6.726;2023-12-29T13:14:00;10.20;99.90
59007;DHT22;44792;52.760;6.726;2023-12-29T13:16:34;10.20;99.90
59007;DHT22;44792;52.760;6.726;2023-12-29T13:19:23;10.20;99.90
59007;DHT22;44792;52.760;6.726;2023-12-29T13:21:58;10.20;99.90
59007;DHT22;44792;52.760;6.726;2023-12-29T13:24:25;10.10;99.90
59007;DHT22;44792;52.760;6.726;2023-12-29T13:26:54;10.10;99.90
59007;DHT22;44792;52.760;6.726;2023-12-29T13:29:22;10.20;99.90
59007;DHT22;44792;52.760;6.726;2023-12-29T13:31:54;10.20;99.90
59007;DHT22;44792;52.760;6.726;2023-12-29T13:34:28;10.20;99.90
59007;DHT22;44792;52.760;6.726;2023-12-29T13:37:06;10.30;99.90
59007;DHT22;44792;52.760;6.726;2023-12-29T13:39:52;10.30;99.90
59007;DHT22;44792;52.760;6.726;2023-12-29T13:42:18;10.40;99.90
59007;DHT22;44792;52.760;6.726;2023-12-29T13:44:46;10.40;99.90
59007;DHT22;44792;52.760;6.726;2023-12-29T13:47:12;10.40;99.90
59007;DHT22;44792;52.760;6.726;2023-12-29T13:49:39;10.40;99.90
59007;DHT22;44792;52.760;6.726;2023-12-29T13:52:05;10.40;99.90
59007;DHT22;44792;52.760;6.726;2023-12-29T13:54:40;10.40;99.90
59007;DHT22;44792;52.760;6.726;2023-12-29T13:57:07;10.40;99.90
59007;DHT22;44792;52.760;6.726;2023-12-29T13:59:32;10.40;99.90
59007;DHT22;44792;52.760;6.726;2023-12-29T14:01:59;10.30;99.90
59007;DHT22;44792;52.760;6.726;2023-12-29T14:04:28;10.30;99.90
59007;DHT22;44792;52.760;6.726;2023-12-29T14:06:59;10.40;99.90
59007;DHT22;44792;52.760;6.726;2023-12-29T14:09:26;10.30;99.90
59007;DHT22;44792;52.760;6.726;2023-12-29T14:11:52;10.30;99.90
59007;DHT22;44792;52.760;6.726;2023-12-29T14:14:25;10.30;99.90
59007;DHT22;44792;52.760;6.726;2023-12-29T14:16:52;10.30;99.90
59007;DHT22;44792;52.760;6.726;2023-12-29T14:19:17;10.30;99.90
59007;DHT22;44792;52.760;6.726;2023-12-29T14:21:45;10.40;99.90
59007;DHT22;44792;52.760;6.726;2023-12-29T14:24:13;10.40;99.90
59007;DHT22;44792;52.760;6.726;2023-12-29T14:29:18;10.30;99.90
59007;DHT22;44792;52.760;6.726;2023-12-29T14:31:44;10.30;99.90
59007;DHT22;44792;52.760;6.726;2023-12-29T14:34:11;10.30;99.90
59007;DHT22;44792;52.760;6.726;2023-12-29T14:36:38;10.30;99.90
59007;DHT22;44792;52.760;6.726;2023-12-29T14:39:05;10.30;99.90
59007;DHT22;44792;52.760;6.726;2023-12-29T14:41:32;10.20;99.90
59007;DHT22;44792;52.760;6.726;2023-12-29T14:43:58;10.30;99.90
59007;DHT22;44792;52.760;6.726;2023-12-29T14:46:24;10.20;99.90
59007;DHT22;44792;52.760;6.726;2023-12-29T14:48:50;10.20;99.90
59007;DHT22;44792;52.760;6.726;2023-12-29T14:51:15;10.20;99.90
59007;DHT22;44792;52.760;6.726;2023-12-29T14:53:45;10.10;99.90
59007;DHT22;44792;52.760;6.726;2023-12-29T14:56:13;10.20;99.90
59007;DHT22;44792;52.760;6.726;2023-12-29T14:58:39;10.20;99.90
59007;DHT22;44792;52.760;6.726;2023-12-29T15:01:06;10.10;99.90
59007;DHT22;44792;52.760;6.726;2023-12-29T15:03:32;10.10;99.90
59007;DHT22;44792;52.760;6.726;2023-12-29T15:05:59;10.10;99.90
59007;DHT22;44792;52.760;6.726;2023-12-29T15:08:25;10.10;99.90
59007;DHT22;44792;52.760;6.726;2023-12-29T15:10:51;10.10;99.90
59007;DHT22;44792;52.760;6.726;2023-12-29T15:13:17;10.20;99.90
59007;DHT22;44792;52.760;6.726;2023-12-29T15:15:43;10.10;99.90
59007;DHT22;44792;52.760;6.726;2023-12-29T15:18:08;10.10;99.90
59007;DHT22;44792;52.760;6.726;2023-12-29T15:20:34;10.10;99.90
59007;DHT22;44792;52.760;6.726;2023-12-29T15:23:00;10.10;99.90
59007;DHT22;44792;52.760;6.726;2023-12-29T15:25:28;10.10;99.90
59007;DHT22;44792;52.760;6.726;2023-12-29T15:27:54;10.10;99.90
59007;DHT22;44792;52.760;6.726;2023-12-29T15:30:20;10.10;99.90
59007;DHT22;44792;52.760;6.726;2023-12-29T15:32:46;10.10;99.90
59007;DHT22;44792;52.760;6.726;2023-12-29T15:35:11;10.00;99.90
59007;DHT22;44792;52.760;6.726;2023-12-29T15:37:37;10.00;99.90
59007;DHT22;44792;52.760;6.726;2023-12-29T15:40:03;10.00;99.90
59007;DHT22;44792;52.760;6.726;2023-12-29T15:42:30;10.00;99.90
59007;DHT22;44792;52.760;6.726;2023-12-29T15:44:55;10.00;99.90
59007;DHT22;44792;52.760;6.726;2023-12-29T15:47:21;10.00;99.90
59007;DHT22;44792;52.760;6.726;2023-12-29T15:49:47;9.90;99.90
59007;DHT22;44792;52.760;6.726;2023-12-29T15:52:13;9.90;99.90
59007;DHT22;44792;52.760;6.726;2023-12-29T15:54:39;9.90;99.90
59007;DHT22;44792;52.760;6.726;2023-12-29T15:57:04;10.00;99.90
59007;DHT22;44792;52.760;6.726;2023-12-29T15:59:36;9.90;99.90